sensor_id;sensor_type;location;lat;lon;timestamp;pressure;altitude;pressure_sealevel;temperature;humidity
23635;BME280;11994;51.038;16.974;2023-04-09T00:00:07;100958.55;;;7.93;78.63
23635;BME280;11994;51.038;16.974;2023-04-09T00:02:34;100961.02;;;7.92;78.68
23635;BME280;11994;51.038;16.974;2023-04-09T00:05:00;100958.39;;;7.92;78.69
23635;BME280;11994;51.038;16.974;2023-04-09T00:07:26;100959.09;;;7.92;78.69
23635;BME280;11994;51.038;16.974;2023-04-09T00:09:52;100962.40;;;7.92;78.61
23635;BME280;11994;51.038;16.974;2023-04-09T00:12:17;100961.52;;;7.90;78.74
23635;BME280;11994;51.038;16.974;2023-04-09T00:14:42;100954.73;;;7.87;78.67
23635;BME280;11994;51.038;16.974;2023-04-09T00:17:08;100954.56;;;7.87;78.71
23635;BME280;11994;51.038;16.974;2023-04-09T00:19:33;100954.39;;;7.88;78.61
23635;BME280;11994;51.038;16.974;2023-04-09T00:21:58;100958.74;;;7.87;78.63
23635;BME280;11994;51.038;16.974;2023-04-09T00:24:24;100957.88;;;7.85;78.74
23635;BME280;11994;51.038;16.974;2023-04-09T00:26:49;100961.35;;;7.83;78.72
23635;BME280;11994;51.038;16.974;2023-04-09T00:29:15;100961.20;;;7.81;78.76
23635;BME280;11994;51.038;16.974;2023-04-09T00:31:40;100967.11;;;7.79;78.68
23635;BME280;11994;51.038;16.974;2023-04-09T00:34:06;100962.92;;;7.77;78.84
23635;BME280;11994;51.038;16.974;2023-04-09T00:36:31;100962.23;;;7.78;78.82
23635;BME280;11994;51.038;16.974;2023-04-09T00:38:56;100958.23;;;7.78;78.82
23635;BME280;11994;51.038;16.974;2023-04-09T00:41:23;100966.58;;;7.78;78.94
23635;BME280;11994;51.038;16.974;2023-04-09T00:43:48;100964.14;;;7.77;78.90
23635;BME280;11994;51.038;16.974;2023-04-09T00:46:13;100966.41;;;7.75;79.01
23635;BME280;11994;51.038;16.974;2023-04-09T00:48:40;100965.02;;;7.74;78.98
23635;BME280;11994;51.038;16.974;2023-04-09T00:51:06;100964.65;;;7.71;79.06
23635;BME280;11994;51.038;16.974;2023-04-09T00:53:32;100962.23;;;7.69;79.14
23635;BME280;11994;51.038;16.974;2023-04-09T00:55:57;100966.58;;;7.69;79.12
23635;BME280;11994;51.038;16.974;2023-04-09T00:58:23;100967.80;;;7.69;79.20
23635;BME280;11994;51.038;16.974;2023-04-09T01:00:48;100966.77;;;7.68;79.25
23635;BME280;11994;51.038;16.974;2023-04-09T01:03:14;100966.23;;;7.64;79.42
23635;BME280;11994;51.038;16.974;2023-04-09T01:05:52;100969.52;;;7.60;79.56
23635;BME280;11994;51.038;16.974;2023-04-09T01:14:53;100966.91;;;7.50;79.82
23635;BME280;11994;51.038;16.974;2023-04-09T01:17:11;100968.30;;;7.48;79.97
23635;BME280;11994;51.038;16.974;2023-04-09T01:20:26;100968.14;;;7.47;80.07
23635;BME280;11994;51.038;16.974;2023-04-09T01:30:24;100979.26;;;7.42;80.36
23635;BME280;11994;51.038;16.974;2023-04-09T01:32:51;100983.95;;;7.40;80.47
23635;BME280;11994;51.038;16.974;2023-04-09T01:35:18;100983.61;;;7.38;80.56
23635;BME280;11994;51.038;16.974;2023-04-09T01:37:44;100988.30;;;7.38;80.54
23635;BME280;11994;51.038;16.974;2023-04-09T01:40:10;100992.98;;;7.36;80.61
23635;BME280;11994;51.038;16.974;2023-04-09T01:42:35;100988.29;;;7.32;80.85
23635;BME280;11994;51.038;16.974;2023-04-09T01:45:02;100991.58;;;7.29;80.88
23635;BME280;11994;51.038;16.974;2023-04-09T01:47:29;100994.01;;;7.26;81.02
23635;BME280;11994;51.038;16.974;2023-04-09T01:49:54;100995.40;;;7.23;81.07
23635;BME280;11994;51.038;16.974;2023-04-09T01:52:20;100997.82;;;7.21;81.29
23635;BME280;11994;51.038;16.974;2023-04-09T01:54:46;100997.83;;;7.23;81.27
23635;BME280;11994;51.038;16.974;2023-04-09T01:57:11;100997.66;;;7.24;81.44
23635;BME280;11994;51.038;16.974;2023-04-09T01:59:36;101001.65;;;7.23;81.52
23635;BME280;11994;51.038;16.974;2023-04-09T02:02:24;101001.48;;;7.22;81.50
23635;BME280;11994;51.038;16.974;2023-04-09T02:04:53;101002.17;;;7.20;81.76
23635;BME280;11994;51.038;16.974;2023-04-09T02:07:42;101000.25;;;7.19;81.84
23635;BME280;11994;51.038;16.974;2023-04-09T02:10:09;100997.64;;;7.19;82.04
23635;BME280;11994;51.038;16.974;2023-04-09T02:12:37;100993.65;;;7.21;82.02
23635;BME280;11994;51.038;16.974;2023-04-09T02:15:03;100997.30;;;7.22;82.04
23635;BME280;11994;51.038;16.974;2023-04-09T02:17:30;101000.45;;;7.23;82.05
23635;BME280;11994;51.038;16.974;2023-04-09T02:19:56;100996.44;;;7.23;82.20
23635;BME280;11994;51.038;16.974;2023-04-09T02:22:22;100995.40;;;7.23;82.22
23635;BME280;11994;51.038;16.974;2023-04-09T02:24:47;100996.08;;;7.22;82.38
23635;BME280;11994;51.038;16.974;2023-04-09T02:27:12;100997.83;;;7.24;82.32
23635;BME280;11994;51.038;16.974;2023-04-09T02:29:38;101002.54;;;7.26;82.24
23635;BME280;11994;51.038;16.974;2023-04-09T02:32:04;101002.02;;;7.27;82.40
23635;BME280;11994;51.038;16.974;2023-04-09T02:34:30;101006.02;;;7.27;82.37
23635;BME280;11994;51.038;16.974;2023-04-09T02:36:55;101003.05;;;7.29;82.34
23635;BME280;11994;51.038;16.974;2023-04-09T02:39:20;101006.02;;;7.30;82.48
23635;BME280;11994;51.038;16.974;2023-04-09T02:41:46;101000.98;;;7.32;82.32
23635;BME280;11994;51.038;16.974;2023-04-09T02:44:11;100999.95;;;7.38;82.40
23635;BME280;11994;51.038;16.974;2023-04-09T02:46:38;100997.17;;;7.43;82.18
23635;BME280;11994;51.038;16.974;2023-04-09T02:49:04;100999.45;;;7.48;82.28
23635;BME280;11994;51.038;16.974;2023-04-09T02:51:29;100995.96;;;7.49;82.13
23635;BME280;11994;51.038;16.974;2023-04-09T02:53:54;100996.30;;;7.50;82.19
23635;BME280;11994;51.038;16.974;2023-04-09T02:56:20;100998.07;;;7.50;82.12
23635;BME280;11994;51.038;16.974;2023-04-09T02:58:45;100995.80;;;7.50;82.13
23635;BME280;11994;51.038;16.974;2023-04-09T03:01:13;100998.95;;;7.52;81.92
23635;BME280;11994;51.038;16.974;2023-04-09T03:03:39;100995.46;;;7.55;81.97
23635;BME280;11994;51.038;16.974;2023-04-09T03:06:06;100993.72;;;7.57;81.95
23635;BME280;11994;51.038;16.974;2023-04-09T03:08:31;100991.11;;;7.57;81.98
23635;BME280;11994;51.038;16.974;2023-04-09T03:10:57;100991.10;;;7.56;81.82
23635;BME280;11994;51.038;16.974;2023-04-09T03:13:22;100987.80;;;7.54;81.79
23635;BME280;11994;51.038;16.974;2023-04-09T03:15:51;100992.67;;;7.52;81.98
23635;BME280;11994;51.038;16.974;2023-04-09T03:18:19;100987.28;;;7.51;81.87
23635;BME280;11994;51.038;16.974;2023-04-09T03:20:45;100985.19;;;7.52;81.86
23635;BME280;11994;51.038;16.974;2023-04-09T03:23:10;100984.68;;;7.53;81.87
23635;BME280;11994;51.038;16.974;2023-04-09T03:25:36;100984.67;;;7.52;81.95
23635;BME280;11994;51.038;16.974;2023-04-09T03:28:02;100984.13;;;7.49;81.79
23635;BME280;11994;51.038;16.974;2023-04-09T03:30:27;100984.48;;;7.46;81.70
23635;BME280;11994;51.038;16.974;2023-04-09T03:32:53;100983.26;;;7.43;81.92
23635;BME280;11994;51.038;16.974;2023-04-09T03:35:18;100981.86;;;7.43;81.91
23635;BME280;11994;51.038;16.974;2023-04-09T03:37:44;100982.21;;;7.43;81.89
23635;BME280;11994;51.038;16.974;2023-04-09T03:40:10;100983.77;;;7.43;82.02
23635;BME280;11994;51.038;16.974;2023-04-09T03:42:35;100984.30;;;7.44;82.01
23635;BME280;11994;51.038;16.974;2023-04-09T03:45:02;100981.69;;;7.44;81.99
23635;BME280;11994;51.038;16.974;2023-04-09T03:47:28;100984.13;;;7.43;82.07
23635;BME280;11994;51.038;16.974;2023-04-09T03:49:53;100988.65;;;7.41;82.03
23635;BME280;11994;51.038;16.974;2023-04-09T03:52:18;100990.58;;;7.42;82.17
23635;BME280;11994;51.038;16.974;2023-04-09T03:54:44;100993.18;;;7.42;82.19
23635;BME280;11994;51.038;16.974;2023-04-09T03:57:09;100995.96;;;7.44;82.26
23635;BME280;11994;51.038;16.974;2023-04-09T03:59:35;100995.80;;;7.43;82.46
23635;BME280;11994;51.038;16.974;2023-04-09T04:02:00;100993.71;;;7.41;82.37
23635;BME280;11994;51.038;16.974;2023-04-09T04:04:25;100995.61;;;7.40;82.46
23635;BME280;11994;51.038;16.974;2023-04-09T04:06:51;100995.79;;;7.41;82.50
23635;BME280;11994;51.038;16.974;2023-04-09T04:09:16;101003.27;;;7.43;82.45
23635;BME280;11994;51.038;16.974;2023-04-09T04:11:42;101005.55;;;7.48;82.42
23635;BME280;11994;51.038;16.974;2023-04-09T04:14:07;101010.08;;;7.55;82.58
23635;BME280;11994;51.038;16.974;2023-04-09T04:16:32;101010.09;;;7.59;82.61
23635;BME280;11994;51.038;16.974;2023-04-09T04:18:58;101012.02;;;7.66;82.89
23635;BME280;11994;51.038;16.974;2023-04-09T04:21:23;101014.45;;;7.64;82.66
23635;BME280;11994;51.038;16.974;2023-04-09T04:23:49;101016.52;;;7.62;82.77
23635;BME280;11994;51.038;16.974;2023-04-09T04:26:14;101017.92;;;7.59;82.81
23635;BME280;11994;51.038;16.974;2023-04-09T04:28:39;101014.78;;;7.56;82.81
23635;BME280;11994;51.038;16.974;2023-04-09T04:31:09;101019.66;;;7.54;83.00
23635;BME280;11994;51.038;16.974;2023-04-09T04:33:38;101021.21;;;7.49;82.89
23635;BME280;11994;51.038;16.974;2023-04-09T04:36:08;101021.19;;;7.43;82.95
23635;BME280;11994;51.038;16.974;2023-04-09T04:38:35;101023.27;;;7.36;82.94
23635;BME280;11994;51.038;16.974;2023-04-09T04:41:01;101022.90;;;7.28;83.06
23635;BME280;11994;51.038;16.974;2023-04-09T04:43:27;101025.48;;;7.22;83.29
23635;BME280;11994;51.038;16.974;2023-04-09T04:45:53;101024.09;;;7.19;83.38
23635;BME280;11994;51.038;16.974;2023-04-09T04:48:18;101029.48;;;7.20;83.69
23635;BME280;11994;51.038;16.974;2023-04-09T04:50:43;101024.10;;;7.20;83.85
23635;BME280;11994;51.038;16.974;2023-04-09T04:53:09;101025.30;;;7.17;84.00
23635;BME280;11994;51.038;16.974;2023-04-09T04:55:35;101022.50;;;7.15;84.17
23635;BME280;11994;51.038;16.974;2023-04-09T04:58:01;101027.90;;;7.14;84.41
23635;BME280;11994;51.038;16.974;2023-04-09T05:00:26;101026.14;;;7.13;84.48
23635;BME280;11994;51.038;16.974;2023-04-09T05:02:52;101020.40;;;7.12;84.31
23635;BME280;11994;51.038;16.974;2023-04-09T05:05:17;101024.73;;;7.09;84.47
23635;BME280;11994;51.038;16.974;2023-04-09T05:07:42;101019.52;;;7.02;84.50
23635;BME280;11994;51.038;16.974;2023-04-09T05:10:08;101020.87;;;6.98;84.61
23635;BME280;11994;51.038;16.974;2023-04-09T05:12:34;101025.36;;;6.92;84.70
23635;BME280;11994;51.038;16.974;2023-04-09T05:14:59;101027.10;;;6.89;84.77
23635;BME280;11994;51.038;16.974;2023-04-09T05:17:24;101025.36;;;6.89;84.93
23635;BME280;11994;51.038;16.974;2023-04-09T05:19:51;101030.04;;;6.86;85.04
23635;BME280;11994;51.038;16.974;2023-04-09T05:22:16;101035.08;;;6.86;85.33
23635;BME280;11994;51.038;16.974;2023-04-09T05:24:42;101037.16;;;6.86;85.51
23635;BME280;11994;51.038;16.974;2023-04-09T05:27:07;101037.31;;;6.85;85.49
23635;BME280;11994;51.038;16.974;2023-04-09T05:29:33;101039.94;;;6.85;85.67
23635;BME280;11994;51.038;16.974;2023-04-09T05:31:58;101041.16;;;6.86;85.69
23635;BME280;11994;51.038;16.974;2023-04-09T05:34:23;101039.08;;;6.86;85.85
23635;BME280;11994;51.038;16.974;2023-04-09T05:36:49;101041.00;;;6.88;86.06
23635;BME280;11994;51.038;16.974;2023-04-09T05:39:14;101042.92;;;6.90;86.00
23635;BME280;11994;51.038;16.974;2023-04-09T05:41:39;101042.55;;;6.87;86.12
23635;BME280;11994;51.038;16.974;2023-04-09T05:44:06;101044.29;;;6.85;86.13
23635;BME280;11994;51.038;16.974;2023-04-09T05:46:31;101046.54;;;6.82;86.13
23635;BME280;11994;51.038;16.974;2023-04-09T05:48:56;101049.46;;;6.78;86.25
23635;BME280;11994;51.038;16.974;2023-04-09T05:51:22;101050.14;;;6.76;86.49
23635;BME280;11994;51.038;16.974;2023-04-09T05:53:47;101050.14;;;6.74;86.66
23635;BME280;11994;51.038;16.974;2023-04-09T05:56:14;101051.87;;;6.72;86.83
23635;BME280;11994;51.038;16.974;2023-04-09T05:58:40;101056.56;;;6.74;87.04
23635;BME280;11994;51.038;16.974;2023-04-09T06:01:05;101053.11;;;6.74;86.91
23635;BME280;11994;51.038;16.974;2023-04-09T06:03:31;101056.56;;;6.72;86.95
23635;BME280;11994;51.038;16.974;2023-04-09T06:05:56;101057.59;;;6.69;87.22
23635;BME280;11994;51.038;16.974;2023-04-09T06:08:21;101057.75;;;6.67;87.35
23635;BME280;11994;51.038;16.974;2023-04-09T06:10:47;101063.10;;;6.62;87.42
23635;BME280;11994;51.038;16.974;2023-04-09T06:13:12;101063.45;;;6.60;87.42
23635;BME280;11994;51.038;16.974;2023-04-09T06:15:38;101067.79;;;6.61;87.71
23635;BME280;11994;51.038;16.974;2023-04-09T06:18:03;101065.89;;;6.63;87.99
23635;BME280;11994;51.038;16.974;2023-04-09T06:20:29;101057.73;;;6.64;87.83
23635;BME280;11994;51.038;16.974;2023-04-09T06:22:54;101060.48;;;6.60;87.90
23635;BME280;11994;51.038;16.974;2023-04-09T06:25:20;101059.94;;;6.57;87.88
23635;BME280;11994;51.038;16.974;2023-04-09T06:27:45;101059.73;;;6.54;88.03
23635;BME280;11994;51.038;16.974;2023-04-09T06:30:11;101057.86;;;6.56;88.38
23635;BME280;11994;51.038;16.974;2023-04-09T06:32:36;101053.69;;;6.58;88.30
23635;BME280;11994;51.038;16.974;2023-04-09T06:35:02;101053.69;;;6.58;88.33
23635;BME280;11994;51.038;16.974;2023-04-09T06:37:28;101047.78;;;6.58;88.46
23635;BME280;11994;51.038;16.974;2023-04-09T06:39:53;101043.11;;;6.60;88.76
23635;BME280;11994;51.038;16.974;2023-04-09T06:42:18;101046.75;;;6.60;88.86
23635;BME280;11994;51.038;16.974;2023-04-09T06:44:44;101044.34;;;6.62;88.95
23635;BME280;11994;51.038;16.974;2023-04-09T06:47:09;101039.84;;;6.65;88.91
23635;BME280;11994;51.038;16.974;2023-04-09T06:49:35;101044.38;;;6.68;88.87
23635;BME280;11994;51.038;16.974;2023-04-09T06:52:00;101039.68;;;6.68;89.09
23635;BME280;11994;51.038;16.974;2023-04-09T06:54:26;101037.08;;;6.71;89.15
23635;BME280;11994;51.038;16.974;2023-04-09T06:56:51;101040.38;;;6.70;89.28
23635;BME280;11994;51.038;16.974;2023-04-09T06:59:16;101043.88;;;6.74;89.31
23635;BME280;11994;51.038;16.974;2023-04-09T07:01:42;101059.36;;;6.75;89.15
23635;BME280;11994;51.038;16.974;2023-04-09T07:04:07;101073.77;;;6.71;89.63
23635;BME280;11994;51.038;16.974;2023-04-09T07:06:33;101072.34;;;6.66;89.68
23635;BME280;11994;51.038;16.974;2023-04-09T07:08:58;101056.32;;;6.62;89.63
23635;BME280;11994;51.038;16.974;2023-04-09T07:11:23;101053.89;;;6.60;89.64
23635;BME280;11994;51.038;16.974;2023-04-09T07:13:49;101054.58;;;6.59;89.69
23635;BME280;11994;51.038;16.974;2023-04-09T07:16:15;101056.13;;;6.59;89.87
23635;BME280;11994;51.038;16.974;2023-04-09T07:18:40;101053.88;;;6.59;90.06
23635;BME280;11994;51.038;16.974;2023-04-09T07:21:05;101060.47;;;6.59;90.37
23635;BME280;11994;51.038;16.974;2023-04-09T07:23:34;101061.00;;;6.60;90.21
23635;BME280;11994;51.038;16.974;2023-04-09T07:26:04;101059.64;;;6.65;90.16
23635;BME280;11994;51.038;16.974;2023-04-09T07:28:30;101064.70;;;6.67;90.22
23635;BME280;11994;51.038;16.974;2023-04-09T07:30:55;101066.29;;;6.69;90.45
23635;BME280;11994;51.038;16.974;2023-04-09T07:33:21;101073.58;;;6.70;90.46
23635;BME280;11994;51.038;16.974;2023-04-09T07:35:46;101073.57;;;6.69;90.52
23635;BME280;11994;51.038;16.974;2023-04-09T07:38:11;101076.89;;;6.71;90.52
23635;BME280;11994;51.038;16.974;2023-04-09T07:40:37;101078.64;;;6.74;90.54
23635;BME280;11994;51.038;16.974;2023-04-09T07:43:03;101080.20;;;6.72;90.53
23635;BME280;11994;51.038;16.974;2023-04-09T07:45:28;101077.05;;;6.70;90.29
23635;BME280;11994;51.038;16.974;2023-04-09T07:47:54;101078.07;;;6.66;90.40
23635;BME280;11994;51.038;16.974;2023-04-09T07:50:19;101078.08;;;6.67;90.45
23635;BME280;11994;51.038;16.974;2023-04-09T07:52:45;101073.20;;;6.67;90.45
23635;BME280;11994;51.038;16.974;2023-04-09T07:55:10;101080.36;;;6.68;90.53
23635;BME280;11994;51.038;16.974;2023-04-09T07:57:35;101077.05;;;6.69;90.89
23635;BME280;11994;51.038;16.974;2023-04-09T08:00:01;101076.18;;;6.69;90.90
23635;BME280;11994;51.038;16.974;2023-04-09T08:02:28;101076.02;;;6.71;90.86
23635;BME280;11994;51.038;16.974;2023-04-09T08:04:53;101075.86;;;6.74;90.90
23635;BME280;11994;51.038;16.974;2023-04-09T08:07:18;101073.97;;;6.76;91.00
23635;BME280;11994;51.038;16.974;2023-04-09T08:09:44;101080.07;;;6.78;90.90
23635;BME280;11994;51.038;16.974;2023-04-09T08:12:10;101086.15;;;6.80;91.08
23635;BME280;11994;51.038;16.974;2023-04-09T08:14:35;101086.18;;;6.84;90.99
23635;BME280;11994;51.038;16.974;2023-04-09T08:17:01;101087.94;;;6.88;90.87
23635;BME280;11994;51.038;16.974;2023-04-09T08:19:26;101088.48;;;6.90;90.93
23635;BME280;11994;51.038;16.974;2023-04-09T08:21:51;101090.75;;;6.92;90.91
23635;BME280;11994;51.038;16.974;2023-04-09T08:24:17;101095.44;;;6.93;91.01
23635;BME280;11994;51.038;16.974;2023-04-09T08:26:43;101096.31;;;6.92;90.97
23635;BME280;11994;51.038;16.974;2023-04-09T08:29:10;101098.24;;;6.96;90.95
23635;BME280;11994;51.038;16.974;2023-04-09T08:31:37;101091.83;;;6.99;90.89
23635;BME280;11994;51.038;16.974;2023-04-09T08:34:02;101088.72;;;7.01;90.91
23635;BME280;11994;51.038;16.974;2023-04-09T08:36:28;101087.16;;;7.02;91.01
23635;BME280;11994;51.038;16.974;2023-04-09T08:38:53;101088.02;;;7.02;91.08
23635;BME280;11994;51.038;16.974;2023-04-09T08:41:22;101084.38;;;7.03;90.99
23635;BME280;11994;51.038;16.974;2023-04-09T08:43:49;101078.31;;;7.08;91.08
23635;BME280;11994;51.038;16.974;2023-04-09T08:46:16;101077.98;;;7.12;91.26
23635;BME280;11994;51.038;16.974;2023-04-09T08:48:46;101079.23;;;7.17;91.31
23635;BME280;11994;51.038;16.974;2023-04-09T08:51:15;101076.45;;;7.18;91.14
23635;BME280;11994;51.038;16.974;2023-04-09T08:53:54;101074.70;;;7.20;91.27
23635;BME280;11994;51.038;16.974;2023-04-09T08:56:20;101083.60;;;7.24;91.34
23635;BME280;11994;51.038;16.974;2023-04-09T08:58:46;101083.63;;;7.29;91.39
23635;BME280;11994;51.038;16.974;2023-04-09T09:01:23;101088.34;;;7.33;91.38
23635;BME280;11994;51.038;16.974;2023-04-09T09:03:55;101084.68;;;7.34;91.26
23635;BME280;11994;51.038;16.974;2023-04-09T09:06:22;101080.86;;;7.33;91.31
23635;BME280;11994;51.038;16.974;2023-04-09T09:09:07;101088.17;;;7.35;91.40
23635;BME280;11994;51.038;16.974;2023-04-09T09:11:38;101084.36;;;7.41;91.41
23635;BME280;11994;51.038;16.974;2023-04-09T09:14:08;101084.74;;;7.48;91.39
23635;BME280;11994;51.038;16.974;2023-04-09T09:16:37;101090.13;;;7.49;91.26
23635;BME280;11994;51.038;16.974;2023-04-09T09:19:06;101090.85;;;7.53;91.49
23635;BME280;11994;51.038;16.974;2023-04-09T09:21:32;101091.20;;;7.58;91.41
23635;BME280;11994;51.038;16.974;2023-04-09T09:23:59;101087.22;;;7.62;91.53
23635;BME280;11994;51.038;16.974;2023-04-09T09:26:29;101091.25;;;7.70;91.55
23635;BME280;11994;51.038;16.974;2023-04-09T09:28:55;101092.64;;;7.77;91.24
23635;BME280;11994;51.038;16.974;2023-04-09T09:31:23;101088.66;;;7.81;91.42
23635;BME280;11994;51.038;16.974;2023-04-09T09:33:50;101091.27;;;7.81;91.32
23635;BME280;11994;51.038;16.974;2023-04-09T09:36:30;101094.22;;;7.80;91.05
23635;BME280;11994;51.038;16.974;2023-04-09T09:38:57;101096.13;;;7.79;91.19
23635;BME280;11994;51.038;16.974;2023-04-09T09:41:23;101097.18;;;7.81;91.00
23635;BME280;11994;51.038;16.974;2023-04-09T09:43:49;101093.36;;;7.85;91.12
23635;BME280;11994;51.038;16.974;2023-04-09T09:46:15;101093.02;;;7.89;91.17
23635;BME280;11994;51.038;16.974;2023-04-09T09:48:41;101087.98;;;7.93;91.30
23635;BME280;11994;51.038;16.974;2023-04-09T09:51:09;101086.94;;;7.92;91.15
23635;BME280;11994;51.038;16.974;2023-04-09T09:53:35;101088.33;;;7.89;90.90
23635;BME280;11994;51.038;16.974;2023-04-09T09:56:04;101088.31;;;7.88;91.01
23635;BME280;11994;51.038;16.974;2023-04-09T09:58:37;101084.84;;;7.89;90.97
23635;BME280;11994;51.038;16.974;2023-04-09T10:01:11;101079.08;;;7.86;90.92
23635;BME280;11994;51.038;16.974;2023-04-09T10:03:38;101083.08;;;7.84;90.86
23635;BME280;11994;51.038;16.974;2023-04-09T10:06:07;101082.39;;;7.84;91.06
23635;BME280;11994;51.038;16.974;2023-04-09T10:08:34;101080.48;;;7.89;91.25
23635;BME280;11994;51.038;16.974;2023-04-09T10:11:02;101073.35;;;7.96;91.28
23635;BME280;11994;51.038;16.974;2023-04-09T10:13:33;101069.52;;;7.99;91.14
23635;BME280;11994;51.038;16.974;2023-04-09T10:15:59;101069.34;;;8.01;91.19
23635;BME280;11994;51.038;16.974;2023-04-09T10:18:26;101069.34;;;8.01;91.03
23635;BME280;11994;51.038;16.974;2023-04-09T10:23:49;101067.09;;;7.99;90.78
23635;BME280;11994;51.038;16.974;2023-04-09T10:26:17;101068.13;;;8.01;90.85
23635;BME280;11994;51.038;16.974;2023-04-09T10:28:42;101068.84;;;8.03;90.84
23635;BME280;11994;51.038;16.974;2023-04-09T10:31:08;101066.73;;;8.04;90.92
23635;BME280;11994;51.038;16.974;2023-04-09T10:33:35;101066.57;;;8.07;90.86
23635;BME280;11994;51.038;16.974;2023-04-09T10:36:11;101065.70;;;8.08;91.05
23635;BME280;11994;51.038;16.974;2023-04-09T10:38:38;101066.40;;;8.13;90.94
23635;BME280;11994;51.038;16.974;2023-04-09T10:43:46;101065.70;;;8.16;90.85
23635;BME280;11994;51.038;16.974;2023-04-09T10:46:34;101072.15;;;8.16;90.79
23635;BME280;11994;51.038;16.974;2023-04-09T10:49:24;101068.66;;;8.15;91.03
23635;BME280;11994;51.038;16.974;2023-04-09T10:52:00;101069.01;;;8.10;91.03
23635;BME280;11994;51.038;16.974;2023-04-09T10:59:32;101061.51;;;8.06;91.19
23635;BME280;11994;51.038;16.974;2023-04-09T11:01:57;101060.98;;;8.02;91.36
23635;BME280;11994;51.038;16.974;2023-04-09T11:04:29;101067.61;;;8.01;91.75
23635;BME280;11994;51.038;16.974;2023-04-09T11:07:03;101071.45;;;8.03;91.77
23635;BME280;11994;51.038;16.974;2023-04-09T11:09:33;101068.13;;;8.05;91.97
23635;BME280;11994;51.038;16.974;2023-04-09T11:11:59;101069.70;;;8.04;92.08
23635;BME280;11994;51.038;16.974;2023-04-09T11:14:24;101065.17;;;8.00;92.14
23635;BME280;11994;51.038;16.974;2023-04-09T11:16:50;101064.13;;;7.98;92.18
23635;BME280;11994;51.038;16.974;2023-04-09T11:19:16;101063.09;;;7.99;92.29
23635;BME280;11994;51.038;16.974;2023-04-09T11:21:41;101064.13;;;8.05;92.69
23635;BME280;11994;51.038;16.974;2023-04-09T11:24:13;101063.25;;;8.14;92.88
23635;BME280;11994;51.038;16.974;2023-04-09T11:26:39;101066.04;;;8.14;92.52
23635;BME280;11994;51.038;16.974;2023-04-09T11:29:06;101067.27;;;8.12;92.58
23635;BME280;11994;51.038;16.974;2023-04-09T11:31:33;101066.92;;;8.13;92.65
23635;BME280;11994;51.038;16.974;2023-04-09T11:33:58;101069.70;;;8.11;92.40
23635;BME280;11994;51.038;16.974;2023-04-09T11:36:24;101068.14;;;8.08;92.47
23635;BME280;11994;51.038;16.974;2023-04-09T11:38:51;101064.30;;;8.05;92.37
23635;BME280;11994;51.038;16.974;2023-04-09T11:41:32;101065.50;;;8.02;92.56
23635;BME280;11994;51.038;16.974;2023-04-09T11:43:57;101066.04;;;8.03;92.94
23635;BME280;11994;51.038;16.974;2023-04-09T11:46:23;101067.43;;;8.04;93.01
23635;BME280;11994;51.038;16.974;2023-04-09T11:48:50;101067.43;;;8.07;93.15
23635;BME280;11994;51.038;16.974;2023-04-09T11:51:16;101063.77;;;8.09;92.87
23635;BME280;11994;51.038;16.974;2023-04-09T11:53:42;101061.34;;;8.07;92.96
23635;BME280;11994;51.038;16.974;2023-04-09T11:56:07;101059.24;;;8.04;92.93
23635;BME280;11994;51.038;16.974;2023-04-09T11:58:34;101056.30;;;8.04;93.08
23635;BME280;11994;51.038;16.974;2023-04-09T12:00:59;101057.33;;;8.05;93.04
23635;BME280;11994;51.038;16.974;2023-04-09T12:03:29;101057.69;;;8.06;92.93
23635;BME280;11994;51.038;16.974;2023-04-09T12:05:55;101055.95;;;8.08;93.12
23635;BME280;11994;51.038;16.974;2023-04-09T12:08:23;101056.27;;;8.11;93.23
23635;BME280;11994;51.038;16.974;2023-04-09T12:10:49;101057.33;;;8.13;93.20
23635;BME280;11994;51.038;16.974;2023-04-09T12:13:15;101057.15;;;8.17;93.20
23635;BME280;11994;51.038;16.974;2023-04-09T12:15:41;101060.34;;;8.20;93.04
23635;BME280;11994;51.038;16.974;2023-04-09T12:18:09;101062.42;;;8.21;92.99
23635;BME280;11994;51.038;16.974;2023-04-09T12:20:37;101062.77;;;8.23;93.25
23635;BME280;11994;51.038;16.974;2023-04-09T12:23:04;101063.30;;;8.25;93.41
23635;BME280;11994;51.038;16.974;2023-04-09T12:25:34;101064.34;;;8.29;93.38
23635;BME280;11994;51.038;16.974;2023-04-09T12:28:01;101066.07;;;8.34;93.37
23635;BME280;11994;51.038;16.974;2023-04-09T12:30:27;101070.44;;;8.36;93.36
23635;BME280;11994;51.038;16.974;2023-04-09T12:32:53;101074.45;;;8.39;93.27
23635;BME280;11994;51.038;16.974;2023-04-09T12:35:20;101070.26;;;8.39;93.35
23635;BME280;11994;51.038;16.974;2023-04-09T12:37:45;101070.44;;;8.38;93.33
23635;BME280;11994;51.038;16.974;2023-04-09T12:40:11;101064.86;;;8.40;93.35
23635;BME280;11994;51.038;16.974;2023-04-09T12:42:41;101057.55;;;8.42;93.29
23635;BME280;11994;51.038;16.974;2023-04-09T12:45:08;101059.63;;;8.43;93.36
23635;BME280;11994;51.038;16.974;2023-04-09T12:47:34;101059.62;;;8.47;93.47
23635;BME280;11994;51.038;16.974;2023-04-09T12:49:59;101065.37;;;8.47;93.51
23635;BME280;11994;51.038;16.974;2023-04-09T12:52:24;101066.23;;;8.47;93.48
23635;BME280;11994;51.038;16.974;2023-04-09T12:54:51;101062.23;;;8.47;93.52
23635;BME280;11994;51.038;16.974;2023-04-09T12:57:16;101065.02;;;8.45;93.38
23635;BME280;11994;51.038;16.974;2023-04-09T12:59:42;101057.70;;;8.45;93.48
23635;BME280;11994;51.038;16.974;2023-04-09T13:02:07;101058.57;;;8.46;93.70
23635;BME280;11994;51.038;16.974;2023-04-09T13:04:32;101055.60;;;8.47;93.56
23635;BME280;11994;51.038;16.974;2023-04-09T13:06:58;101060.66;;;8.49;93.75
23635;BME280;11994;51.038;16.974;2023-04-09T13:09:23;101055.60;;;8.49;93.71
23635;BME280;11994;51.038;16.974;2023-04-09T13:11:49;101056.13;;;8.47;93.99